sensor_id;sensor_type;location;lat;lon;timestamp;P1;durP1;ratioP1;P2;durP2;ratioP2
24801;SDS011;12898;50.520;12.152;2022-11-27T00:02:00;27.17;;;13.63;;
24801;SDS011;12898;50.520;12.152;2022-11-27T00:04:26;27.67;;;14.03;;
24801;SDS011;12898;50.520;12.152;2022-11-27T00:06:51;32.00;;;15.57;;
24801;SDS011;12898;50.520;12.152;2022-11-27T00:09:17;29.73;;;15.03;;
24801;SDS011;12898;50.520;12.152;2022-11-27T00:11:43;34.77;;;15.73;;
24801;SDS011;12898;50.520;12.152;2022-11-27T00:14:10;30.27;;;15.10;;
24801;SDS011;12898;50.520;12.152;2022-11-27T00:16:38;30.13;;;15.37;;
24801;SDS011;12898;50.520;12.152;2022-11-27T00:19:04;27.77;;;14.40;;
24801;SDS011;12898;50.520;12.152;2022-11-27T00:21:30;30.23;;;15.27;;
24801;SDS011;12898;50.520;12.152;2022-11-27T00:24:00;30.37;;;15.53;;
24801;SDS011;12898;50.520;12.152;2022-11-27T00:26:29;28.53;;;13.73;;
24801;SDS011;12898;50.520;12.152;2022-11-27T00:28:55;26.47;;;14.07;;
24801;SDS011;12898;50.520;12.152;2022-11-27T00:31:25;29.03;;;14.43;;
24801;SDS011;12898;50.520;12.152;2022-11-27T00:33:55;28.77;;;13.60;;
24801;SDS011;12898;50.520;12.152;2022-11-27T00:36:23;28.40;;;14.00;;
24801;SDS011;12898;50.520;12.152;2022-11-27T00:38:51;26.27;;;13.77;;
24801;SDS011;12898;50.520;12.152;2022-11-27T00:41:17;29.80;;;14.43;;
24801;SDS011;12898;50.520;12.152;2022-11-27T00:43:49;25.60;;;13.30;;
24801;SDS011;12898;50.520;12.152;2022-11-27T00:46:16;27.77;;;14.50;;
24801;SDS011;12898;50.520;12.152;2022-11-27T00:48:46;30.60;;;15.73;;
24801;SDS011;12898;50.520;12.152;2022-11-27T00:51:13;30.37;;;14.03;;
24801;SDS011;12898;50.520;12.152;2022-11-27T00:53:42;28.57;;;14.47;;
24801;SDS011;12898;50.520;12.152;2022-11-27T00:56:09;25.80;;;14.87;;
24801;SDS011;12898;50.520;12.152;2022-11-27T00:58:46;26.60;;;14.33;;
24801;SDS011;12898;50.520;12.152;2022-11-27T01:01:14;30.83;;;14.27;;
24801;SDS011;12898;50.520;12.152;2022-11-27T01:03:44;32.30;;;16.53;;
24801;SDS011;12898;50.520;12.152;2022-11-27T01:06:10;28.67;;;15.87;;
24801;SDS011;12898;50.520;12.152;2022-11-27T01:08:36;31.37;;;16.23;;
24801;SDS011;12898;50.520;12.152;2022-11-27T01:11:02;27.93;;;15.17;;
24801;SDS011;12898;50.520;12.152;2022-11-27T01:13:29;34.23;;;15.90;;
24801;SDS011;12898;50.520;12.152;2022-11-27T01:18:28;31.63;;;16.77;;
24801;SDS011;12898;50.520;12.152;2022-11-27T01:20:54;31.37;;;16.70;;
24801;SDS011;12898;50.520;12.152;2022-11-27T01:23:20;31.83;;;16.07;;
24801;SDS011;12898;50.520;12.152;2022-11-27T01:25:47;30.17;;;16.00;;
24801;SDS011;12898;50.520;12.152;2022-11-27T01:28:13;29.13;;;15.57;;
24801;SDS011;12898;50.520;12.152;2022-11-27T01:30:39;32.13;;;14.97;;
24801;SDS011;12898;50.520;12.152;2022-11-27T01:33:05;27.97;;;14.43;;
24801;SDS011;12898;50.520;12.152;2022-11-27T01:35:31;28.90;;;15.60;;
24801;SDS011;12898;50.520;12.152;2022-11-27T01:37:57;31.47;;;15.73;;
24801;SDS011;12898;50.520;12.152;2022-11-27T01:40:22;30.93;;;15.17;;
24801;SDS011;12898;50.520;12.152;2022-11-27T01:42:49;33.20;;;15.90;;
24801;SDS011;12898;50.520;12.152;2022-11-27T01:45:16;29.73;;;14.83;;
24801;SDS011;12898;50.520;12.152;2022-11-27T01:47:46;28.33;;;14.47;;
24801;SDS011;12898;50.520;12.152;2022-11-27T01:50:18;29.73;;;14.80;;
24801;SDS011;12898;50.520;12.152;2022-11-27T01:52:55;28.37;;;14.50;;
24801;SDS011;12898;50.520;12.152;2022-11-27T01:55:31;29.77;;;14.43;;
24801;SDS011;12898;50.520;12.152;2022-11-27T01:58:03;32.27;;;15.37;;
24801;SDS011;12898;50.520;12.152;2022-11-27T02:00:47;33.20;;;15.53;;
24801;SDS011;12898;50.520;12.152;2022-11-27T02:03:12;30.13;;;14.23;;
24801;SDS011;12898;50.520;12.152;2022-11-27T02:05:39;33.30;;;15.43;;
24801;SDS011;12898;50.520;12.152;2022-11-27T02:08:06;32.77;;;14.20;;
24801;SDS011;12898;50.520;12.152;2022-11-27T02:13:47;31.80;;;14.83;;
24801;SDS011;12898;50.520;12.152;2022-11-27T02:16:37;29.60;;;13.77;;
24801;SDS011;12898;50.520;12.152;2022-11-27T02:30:21;29.27;;;13.83;;
24801;SDS011;12898;50.520;12.152;2022-11-27T02:32:48;29.73;;;14.23;;
24801;SDS011;12898;50.520;12.152;2022-11-27T02:35:25;27.83;;;12.97;;
24801;SDS011;12898;50.520;12.152;2022-11-27T02:38:06;25.70;;;13.87;;
24801;SDS011;12898;50.520;12.152;2022-11-27T02:40:43;29.90;;;15.53;;
24801;SDS011;12898;50.520;12.152;2022-11-27T02:43:32;38.20;;;15.33;;
24801;SDS011;12898;50.520;12.152;2022-11-27T02:46:06;27.33;;;14.37;;
24801;SDS011;12898;50.520;12.152;2022-11-27T02:48:47;35.57;;;15.10;;
24801;SDS011;12898;50.520;12.152;2022-11-27T02:51:29;36.23;;;14.23;;
24801;SDS011;12898;50.520;12.152;2022-11-27T02:54:04;31.07;;;13.63;;
24801;SDS011;12898;50.520;12.152;2022-11-27T02:56:33;29.67;;;13.87;;
24801;SDS011;12898;50.520;12.152;2022-11-27T02:59:02;28.77;;;13.83;;
24801;SDS011;12898;50.520;12.152;2022-11-27T03:01:33;27.60;;;13.00;;
24801;SDS011;12898;50.520;12.152;2022-11-27T03:04:11;34.00;;;13.97;;
24801;SDS011;12898;50.520;12.152;2022-11-27T03:06:46;29.77;;;13.93;;
24801;SDS011;12898;50.520;12.152;2022-11-27T03:09:19;28.37;;;13.00;;
24801;SDS011;12898;50.520;12.152;2022-11-27T03:11:50;32.33;;;14.33;;
24801;SDS011;12898;50.520;12.152;2022-11-27T03:14:16;28.47;;;13.20;;
24801;SDS011;12898;50.520;12.152;2022-11-27T03:16:55;28.37;;;13.87;;
24801;SDS011;12898;50.520;12.152;2022-11-27T03:22:26;27.83;;;13.10;;
24801;SDS011;12898;50.520;12.152;2022-11-27T03:24:52;28.90;;;13.03;;
24801;SDS011;12898;50.520;12.152;2022-11-27T03:27:20;25.77;;;13.20;;
24801;SDS011;12898;50.520;12.152;2022-11-27T03:29:55;29.23;;;13.67;;
24801;SDS011;12898;50.520;12.152;2022-11-27T03:32:25;29.50;;;12.57;;
24801;SDS011;12898;50.520;12.152;2022-11-27T03:34:52;26.50;;;12.30;;
24801;SDS011;12898;50.520;12.152;2022-11-27T03:37:18;30.33;;;13.00;;
24801;SDS011;12898;50.520;12.152;2022-11-27T03:39:45;23.80;;;12.07;;
24801;SDS011;12898;50.520;12.152;2022-11-27T03:51:25;26.03;;;11.43;;
24801;SDS011;12898;50.520;12.152;2022-11-27T03:53:37;22.67;;;11.77;;
24801;SDS011;12898;50.520;12.152;2022-11-27T03:56:47;26.33;;;11.67;;
24801;SDS011;12898;50.520;12.152;2022-11-27T03:59:26;23.97;;;11.37;;
24801;SDS011;12898;50.520;12.152;2022-11-27T04:01:56;23.73;;;11.37;;
24801;SDS011;12898;50.520;12.152;2022-11-27T04:04:22;22.57;;;11.97;;
24801;SDS011;12898;50.520;12.152;2022-11-27T04:06:49;24.27;;;10.87;;
24801;SDS011;12898;50.520;12.152;2022-11-27T04:09:14;23.27;;;11.37;;
24801;SDS011;12898;50.520;12.152;2022-11-27T04:11:40;24.77;;;11.30;;
24801;SDS011;12898;50.520;12.152;2022-11-27T04:14:06;21.67;;;10.17;;
24801;SDS011;12898;50.520;12.152;2022-11-27T04:16:31;22.63;;;10.53;;
24801;SDS011;12898;50.520;12.152;2022-11-27T04:18:57;19.80;;;10.40;;
24801;SDS011;12898;50.520;12.152;2022-11-27T04:21:23;21.27;;;9.73;;
24801;SDS011;12898;50.520;12.152;2022-11-27T04:23:48;21.87;;;10.43;;
24801;SDS011;12898;50.520;12.152;2022-11-27T04:26:14;19.97;;;9.40;;
24801;SDS011;12898;50.520;12.152;2022-11-27T04:28:40;20.10;;;9.50;;
24801;SDS011;12898;50.520;12.152;2022-11-27T04:31:06;20.57;;;9.53;;
24801;SDS011;12898;50.520;12.152;2022-11-27T04:33:32;18.67;;;9.77;;
24801;SDS011;12898;50.520;12.152;2022-11-27T04:35:57;22.27;;;9.83;;
24801;SDS011;12898;50.520;12.152;2022-11-27T04:38:23;21.30;;;10.03;;
24801;SDS011;12898;50.520;12.152;2022-11-27T04:40:50;23.00;;;9.87;;
24801;SDS011;12898;50.520;12.152;2022-11-27T04:43:17;22.57;;;10.33;;
24801;SDS011;12898;50.520;12.152;2022-11-27T04:45:43;18.20;;;8.93;;
24801;SDS011;12898;50.520;12.152;2022-11-27T04:48:08;22.23;;;9.63;;
24801;SDS011;12898;50.520;12.152;2022-11-27T04:50:34;18.67;;;9.93;;
24801;SDS011;12898;50.520;12.152;2022-11-27T04:53:00;19.17;;;9.33;;
24801;SDS011;12898;50.520;12.152;2022-11-27T04:55:26;20.73;;;9.33;;
24801;SDS011;12898;50.520;12.152;2022-11-27T04:57:51;20.60;;;9.73;;
24801;SDS011;12898;50.520;12.152;2022-11-27T05:00:17;20.07;;;9.87;;
24801;SDS011;12898;50.520;12.152;2022-11-27T05:02:44;19.97;;;10.23;;
24801;SDS011;12898;50.520;12.152;2022-11-27T05:05:09;19.07;;;9.27;;
24801;SDS011;12898;50.520;12.152;2022-11-27T05:07:35;22.00;;;9.77;;
24801;SDS011;12898;50.520;12.152;2022-11-27T05:10:01;19.50;;;8.83;;
24801;SDS011;12898;50.520;12.152;2022-11-27T05:12:28;20.37;;;9.10;;
24801;SDS011;12898;50.520;12.152;2022-11-27T05:14:54;21.03;;;9.47;;
24801;SDS011;12898;50.520;12.152;2022-11-27T05:17:19;20.27;;;10.37;;
24801;SDS011;12898;50.520;12.152;2022-11-27T05:19:45;18.13;;;9.47;;
24801;SDS011;12898;50.520;12.152;2022-11-27T05:22:11;22.07;;;10.13;;
24801;SDS011;12898;50.520;12.152;2022-11-27T05:24:36;21.83;;;10.03;;
24801;SDS011;12898;50.520;12.152;2022-11-27T05:27:02;21.97;;;9.47;;
24801;SDS011;12898;50.520;12.152;2022-11-27T05:29:28;19.20;;;9.07;;
24801;SDS011;12898;50.520;12.152;2022-11-27T05:31:53;19.23;;;9.30;;
24801;SDS011;12898;50.520;12.152;2022-11-27T05:34:19;20.73;;;9.73;;
24801;SDS011;12898;50.520;12.152;2022-11-27T05:36:45;22.60;;;9.73;;
24801;SDS011;12898;50.520;12.152;2022-11-27T05:39:11;18.33;;;9.67;;
24801;SDS011;12898;50.520;12.152;2022-11-27T05:41:37;18.60;;;9.30;;
24801;SDS011;12898;50.520;12.152;2022-11-27T05:44:05;20.43;;;9.57;;
24801;SDS011;12898;50.520;12.152;2022-11-27T05:46:31;19.13;;;9.47;;
24801;SDS011;12898;50.520;12.152;2022-11-27T05:48:57;21.43;;;10.53;;
24801;SDS011;12898;50.520;12.152;2022-11-27T05:51:23;21.37;;;10.20;;
24801;SDS011;12898;50.520;12.152;2022-11-27T05:53:49;22.30;;;10.33;;
24801;SDS011;12898;50.520;12.152;2022-11-27T05:56:16;19.13;;;9.33;;
24801;SDS011;12898;50.520;12.152;2022-11-27T05:58:43;19.00;;;9.97;;
24801;SDS011;12898;50.520;12.152;2022-11-27T06:01:11;23.00;;;11.83;;
24801;SDS011;12898;50.520;12.152;2022-11-27T06:03:38;21.93;;;9.67;;
24801;SDS011;12898;50.520;12.152;2022-11-27T06:06:14;23.10;;;11.20;;
24801;SDS011;12898;50.520;12.152;2022-11-27T06:08:42;20.57;;;10.27;;
24801;SDS011;12898;50.520;12.152;2022-11-27T06:11:10;20.27;;;10.13;;
24801;SDS011;12898;50.520;12.152;2022-11-27T06:13:42;19.43;;;9.47;;
24801;SDS011;12898;50.520;12.152;2022-11-27T06:16:21;19.63;;;10.43;;
24801;SDS011;12898;50.520;12.152;2022-11-27T06:18:51;18.13;;;9.30;;
24801;SDS011;12898;50.520;12.152;2022-11-27T06:21:19;20.87;;;9.37;;
24801;SDS011;12898;50.520;12.152;2022-11-27T06:23:47;18.70;;;9.80;;
24801;SDS011;12898;50.520;12.152;2022-11-27T06:28:41;20.27;;;10.03;;
24801;SDS011;12898;50.520;12.152;2022-11-27T06:31:10;20.17;;;10.00;;
24801;SDS011;12898;50.520;12.152;2022-11-27T06:33:39;20.90;;;9.60;;
24801;SDS011;12898;50.520;12.152;2022-11-27T06:36:05;19.80;;;10.10;;
24801;SDS011;12898;50.520;12.152;2022-11-27T06:38:32;19.37;;;10.00;;
24801;SDS011;12898;50.520;12.152;2022-11-27T06:41:03;20.77;;;10.57;;
24801;SDS011;12898;50.520;12.152;2022-11-27T06:43:34;18.73;;;9.53;;
24801;SDS011;12898;50.520;12.152;2022-11-27T06:46:01;21.67;;;10.30;;
24801;SDS011;12898;50.520;12.152;2022-11-27T06:48:28;20.13;;;10.00;;
24801;SDS011;12898;50.520;12.152;2022-11-27T06:50:57;18.87;;;9.60;;
24801;SDS011;12898;50.520;12.152;2022-11-27T06:53:27;18.30;;;9.40;;
24801;SDS011;12898;50.520;12.152;2022-11-27T06:55:54;20.13;;;10.10;;
24801;SDS011;12898;50.520;12.152;2022-11-27T06:58:21;20.23;;;9.90;;
24801;SDS011;12898;50.520;12.152;2022-11-27T07:00:46;19.53;;;10.27;;
24801;SDS011;12898;50.520;12.152;2022-11-27T07:03:12;19.20;;;10.00;;
24801;SDS011;12898;50.520;12.152;2022-11-27T07:05:38;20.07;;;9.63;;
24801;SDS011;12898;50.520;12.152;2022-11-27T07:08:03;22.90;;;11.67;;
24801;SDS011;12898;50.520;12.152;2022-11-27T07:10:32;23.03;;;11.07;;
24801;SDS011;12898;50.520;12.152;2022-11-27T07:12:59;20.80;;;10.87;;
24801;SDS011;12898;50.520;12.152;2022-11-27T07:15:25;22.83;;;10.87;;
24801;SDS011;12898;50.520;12.152;2022-11-27T07:17:50;19.73;;;10.47;;
24801;SDS011;12898;50.520;12.152;2022-11-27T07:20:16;20.27;;;10.67;;
24801;SDS011;12898;50.520;12.152;2022-11-27T07:22:42;19.70;;;9.93;;
24801;SDS011;12898;50.520;12.152;2022-11-27T07:25:08;22.50;;;11.40;;
24801;SDS011;12898;50.520;12.152;2022-11-27T07:27:33;20.13;;;10.57;;
24801;SDS011;12898;50.520;12.152;2022-11-27T07:29:59;20.57;;;10.57;;
24801;SDS011;12898;50.520;12.152;2022-11-27T07:32:25;22.07;;;10.87;;
24801;SDS011;12898;50.520;12.152;2022-11-27T07:34:50;19.80;;;10.47;;
24801;SDS011;12898;50.520;12.152;2022-11-27T07:37:16;20.00;;;10.27;;
24801;SDS011;12898;50.520;12.152;2022-11-27T07:39:42;22.10;;;11.00;;
24801;SDS011;12898;50.520;12.152;2022-11-27T07:42:07;22.33;;;10.03;;
24801;SDS011;12898;50.520;12.152;2022-11-27T07:44:33;19.77;;;10.23;;
24801;SDS011;12898;50.520;12.152;2022-11-27T07:46:59;19.63;;;10.23;;
24801;SDS011;12898;50.520;12.152;2022-11-27T07:49:24;22.90;;;10.97;;
24801;SDS011;12898;50.520;12.152;2022-11-27T07:51:50;19.57;;;10.13;;
24801;SDS011;12898;50.520;12.152;2022-11-27T07:54:16;18.67;;;9.67;;
24801;SDS011;12898;50.520;12.152;2022-11-27T07:56:41;21.03;;;10.40;;
24801;SDS011;12898;50.520;12.152;2022-11-27T07:59:07;18.03;;;9.70;;
24801;SDS011;12898;50.520;12.152;2022-11-27T08:01:33;17.57;;;9.87;;
24801;SDS011;12898;50.520;12.152;2022-11-27T08:03:58;20.10;;;9.63;;
24801;SDS011;12898;50.520;12.152;2022-11-27T08:06:25;19.03;;;9.83;;
24801;SDS011;12898;50.520;12.152;2022-11-27T08:08:51;21.53;;;10.57;;
24801;SDS011;12898;50.520;12.152;2022-11-27T08:11:23;16.33;;;8.47;;
24801;SDS011;12898;50.520;12.152;2022-11-27T08:13:57;18.07;;;9.30;;
24801;SDS011;12898;50.520;12.152;2022-11-27T08:16:29;18.33;;;9.33;;
24801;SDS011;12898;50.520;12.152;2022-11-27T08:18:56;18.27;;;9.07;;
24801;SDS011;12898;50.520;12.152;2022-11-27T08:21:22;17.20;;;9.60;;
24801;SDS011;12898;50.520;12.152;2022-11-27T08:23:48;17.67;;;8.87;;
24801;SDS011;12898;50.520;12.152;2022-11-27T08:26:14;16.93;;;9.07;;
24801;SDS011;12898;50.520;12.152;2022-11-27T08:28:40;17.43;;;9.37;;
24801;SDS011;12898;50.520;12.152;2022-11-27T08:31:07;16.60;;;8.67;;
24801;SDS011;12898;50.520;12.152;2022-11-27T08:33:36;16.17;;;8.47;;
24801;SDS011;12898;50.520;12.152;2022-11-27T08:36:02;20.13;;;9.90;;
24801;SDS011;12898;50.520;12.152;2022-11-27T08:38:28;16.77;;;8.70;;
24801;SDS011;12898;50.520;12.152;2022-11-27T08:40:55;18.33;;;9.77;;
24801;SDS011;12898;50.520;12.152;2022-11-27T08:43:26;17.93;;;8.70;;
24801;SDS011;12898;50.520;12.152;2022-11-27T08:45:53;17.23;;;9.03;;
24801;SDS011;12898;50.520;12.152;2022-11-27T08:48:19;19.77;;;9.07;;
24801;SDS011;12898;50.520;12.152;2022-11-27T08:50:46;17.40;;;9.13;;
24801;SDS011;12898;50.520;12.152;2022-11-27T08:53:13;19.57;;;9.20;;
24801;SDS011;12898;50.520;12.152;2022-11-27T08:55:40;16.73;;;8.67;;
24801;SDS011;12898;50.520;12.152;2022-11-27T08:58:05;18.50;;;9.87;;
24801;SDS011;12898;50.520;12.152;2022-11-27T09:00:32;19.10;;;8.93;;
24801;SDS011;12898;50.520;12.152;2022-11-27T09:03:00;16.77;;;9.13;;
24801;SDS011;12898;50.520;12.152;2022-11-27T09:05:26;18.13;;;9.63;;
24801;SDS011;12898;50.520;12.152;2022-11-27T09:07:53;17.27;;;8.80;;
24801;SDS011;12898;50.520;12.152;2022-11-27T09:10:19;18.93;;;9.20;;
24801;SDS011;12898;50.520;12.152;2022-11-27T09:12:47;17.67;;;9.10;;
24801;SDS011;12898;50.520;12.152;2022-11-27T09:15:14;16.23;;;8.97;;
24801;SDS011;12898;50.520;12.152;2022-11-27T09:17:40;16.63;;;8.70;;
24801;SDS011;12898;50.520;12.152;2022-11-27T09:20:06;18.37;;;9.63;;
24801;SDS011;12898;50.520;12.152;2022-11-27T09:22:33;17.60;;;10.17;;
24801;SDS011;12898;50.520;12.152;2022-11-27T09:24:59;15.80;;;9.13;;
24801;SDS011;12898;50.520;12.152;2022-11-27T09:27:25;16.70;;;9.20;;
24801;SDS011;12898;50.520;12.152;2022-11-27T09:29:51;17.10;;;8.53;;
24801;SDS011;12898;50.520;12.152;2022-11-27T09:32:17;16.77;;;8.40;;
24801;SDS011;12898;50.520;12.152;2022-11-27T09:34:43;15.47;;;8.43;;
24801;SDS011;12898;50.520;12.152;2022-11-27T09:37:09;16.43;;;8.70;;
24801;SDS011;12898;50.520;12.152;2022-11-27T09:39:35;18.33;;;8.90;;
24801;SDS011;12898;50.520;12.152;2022-11-27T09:42:02;16.83;;;8.87;;
24801;SDS011;12898;50.520;12.152;2022-11-27T09:44:31;19.27;;;9.07;;
24801;SDS011;12898;50.520;12.152;2022-11-27T09:47:40;17.40;;;9.20;;
24801;SDS011;12898;50.520;12.152;2022-11-27T09:50:23;15.57;;;8.67;;
24801;SDS011;12898;50.520;12.152;2022-11-27T09:52:57;15.80;;;8.53;;
24801;SDS011;12898;50.520;12.152;2022-11-27T09:55:33;16.20;;;8.23;;
24801;SDS011;12898;50.520;12.152;2022-11-27T09:58:09;17.77;;;8.50;;
24801;SDS011;12898;50.520;12.152;2022-11-27T10:00:47;16.50;;;8.77;;
24801;SDS011;12898;50.520;12.152;2022-11-27T10:03:14;18.30;;;8.50;;
24801;SDS011;12898;50.520;12.152;2022-11-27T10:05:55;17.60;;;8.37;;
24801;SDS011;12898;50.520;12.152;2022-11-27T10:14:56;17.07;;;7.87;;
24801;SDS011;12898;50.520;12.152;2022-11-27T10:17:48;15.60;;;8.10;;
24801;SDS011;12898;50.520;12.152;2022-11-27T10:20:34;17.77;;;7.93;;
24801;SDS011;12898;50.520;12.152;2022-11-27T10:26:19;15.30;;;7.73;;
24801;SDS011;12898;50.520;12.152;2022-11-27T10:29:21;13.18;;;7.43;;
24801;SDS011;12898;50.520;12.152;2022-11-27T10:32:03;14.23;;;7.68;;
24801;SDS011;12898;50.520;12.152;2022-11-27T10:34:44;14.30;;;6.67;;
24801;SDS011;12898;50.520;12.152;2022-11-27T10:39:55;12.90;;;7.20;;
24801;SDS011;12898;50.520;12.152;2022-11-27T10:42:37;12.15;;;7.15;;
24801;SDS011;12898;50.520;12.152;2022-11-27T10:47:44;13.07;;;6.68;;
24801;SDS011;12898;50.520;12.152;2022-11-27T10:50:13;16.07;;;7.70;;
24801;SDS011;12898;50.520;12.152;2022-11-27T10:52:54;14.90;;;7.87;;
24801;SDS011;12898;50.520;12.152;2022-11-27T10:55:27;13.90;;;7.18;;
24801;SDS011;12898;50.520;12.152;2022-11-27T11:01:21;14.07;;;7.60;;
24801;SDS011;12898;50.520;12.152;2022-11-27T11:03:48;14.07;;;7.15;;
24801;SDS011;12898;50.520;12.152;2022-11-27T11:09:02;13.10;;;7.00;;
24801;SDS011;12898;50.520;12.152;2022-11-27T11:11:36;14.70;;;7.80;;
24801;SDS011;12898;50.520;12.152;2022-11-27T11:14:01;13.57;;;6.68;;
24801;SDS011;12898;50.520;12.152;2022-11-27T11:16:27;13.52;;;6.65;;
24801;SDS011;12898;50.520;12.152;2022-11-27T11:18:56;12.75;;;6.30;;
24801;SDS011;12898;50.520;12.152;2022-11-27T11:21:30;13.60;;;6.80;;
24801;SDS011;12898;50.520;12.152;2022-11-27T11:24:04;13.98;;;6.57;;
24801;SDS011;12898;50.520;12.152;2022-11-27T11:26:49;11.25;;;6.63;;
24801;SDS011;12898;50.520;12.152;2022-11-27T11:29:24;12.80;;;6.75;;
24801;SDS011;12898;50.520;12.152;2022-11-27T11:32:23;12.63;;;6.63;;
24801;SDS011;12898;50.520;12.152;2022-11-27T11:34:52;13.02;;;7.07;;
24801;SDS011;12898;50.520;12.152;2022-11-27T11:37:27;17.13;;;8.45;;
24801;SDS011;12898;50.520;12.152;2022-11-27T11:40:00;16.00;;;7.70;;
24801;SDS011;12898;50.520;12.152;2022-11-27T11:42:48;14.15;;;6.97;;
24801;SDS011;12898;50.520;12.152;2022-11-27T11:45:17;14.18;;;7.40;;
24801;SDS011;12898;50.520;12.152;2022-11-27T11:47:53;13.25;;;7.13;;
24801;SDS011;12898;50.520;12.152;2022-11-27T11:50:32;15.38;;;7.05;;
24801;SDS011;12898;50.520;12.152;2022-11-27T11:53:15;14.23;;;6.90;;
24801;SDS011;12898;50.520;12.152;2022-11-27T11:56:06;12.55;;;6.75;;
24801;SDS011;12898;50.520;12.152;2022-11-27T12:07:31;13.93;;;6.97;;
24801;SDS011;12898;50.520;12.152;2022-11-27T12:13:42;12.00;;;6.35;;
24801;SDS011;12898;50.520;12.152;2022-11-27T12:19:36;12.95;;;7.10;;
24801;SDS011;12898;50.520;12.152;2022-11-27T12:45:31;11.50;;;6.22;;
24801;SDS011;12898;50.520;12.152;2022-11-27T12:53:34;12.63;;;6.70;;
24801;SDS011;12898;50.520;12.152;2022-11-27T12:56:13;14.55;;;6.53;;
24801;SDS011;12898;50.520;12.152;2022-11-27T13:02:19;13.27;;;6.72;;
24801;SDS011;12898;50.520;12.152;2022-11-27T13:05:10;12.13;;;6.47;;
24801;SDS011;12898;50.520;12.152;2022-11-27T13:07:50;11.98;;;6.28;;
24801;SDS011;12898;50.520;12.152;2022-11-27T13:15:57;12.00;;;6.78;;
24801;SDS011;12898;50.520;12.152;2022-11-27T13:21:36;11.63;;;6.57;;
24801;SDS011;12898;50.520;12.152;2022-11-27T13:24:03;11.65;;;6.72;;
24801;SDS011;12898;50.520;12.152;2022-11-27T13:26:32;13.13;;;6.78;;
24801;SDS011;12898;50.520;12.152;2022-11-27T13:29:14;13.32;;;6.53;;
24801;SDS011;12898;50.520;12.152;2022-11-27T13:32:03;13.90;;;6.90;;
24801;SDS011;12898;50.520;12.152;2022-11-27T13:34:31;12.57;;;6.50;;
24801;SDS011;12898;50.520;12.152;2022-11-27T13:37:06;12.65;;;7.07;;
24801;SDS011;12898;50.520;12.152;2022-11-27T13:39:34;13.43;;;6.95;;
24801;SDS011;12898;50.520;12.152;2022-11-27T13:42:08;13.10;;;7.07;;
24801;SDS011;12898;50.520;12.152;2022-11-27T13:47:38;14.10;;;7.17;;
24801;SDS011;12898;50.520;12.152;2022-11-27T13:50:13;11.77;;;6.50;;
24801;SDS011;12898;50.520;12.152;2022-11-27T13:52:53;17.30;;;8.50;;
24801;SDS011;12898;50.520;12.152;2022-11-27T13:55:32;14.43;;;8.50;;
24801;SDS011;12898;50.520;12.152;2022-11-27T13:58:00;13.53;;;7.73;;
24801;SDS011;12898;50.520;12.152;2022-11-27T14:00:34;14.27;;;8.63;;
24801;SDS011;12898;50.520;12.152;2022-11-27T14:03:02;15.33;;;7.83;;
24801;SDS011;12898;50.520;12.152;2022-11-27T14:05:34;15.07;;;8.87;;
24801;SDS011;12898;50.520;12.152;2022-11-27T14:08:14;19.00;;;8.50;;
24801;SDS011;12898;50.520;12.152;2022-11-27T14:13:34;17.50;;;8.93;;
24801;SDS011;12898;50.520;12.152;2022-11-27T14:16:06;25.17;;;9.30;;
24801;SDS011;12898;50.520;12.152;2022-11-27T14:18:52;16.07;;;9.03;;
24801;SDS011;12898;50.520;12.152;2022-11-27T14:21:28;19.13;;;9.23;;
24801;SDS011;12898;50.520;12.152;2022-11-27T14:24:03;17.67;;;8.53;;
24801;SDS011;12898;50.520;12.152;2022-11-27T14:27:14;20.37;;;8.60;;
24801;SDS011;12898;50.520;12.152;2022-11-27T14:29:46;17.63;;;8.63;;
24801;SDS011;12898;50.520;12.152;2022-11-27T14:32:12;16.57;;;9.13;;
24801;SDS011;12898;50.520;12.152;2022-11-27T14:34:40;17.40;;;8.00;;
24801;SDS011;12898;50.520;12.152;2022-11-27T14:37:06;16.10;;;8.33;;
24801;SDS011;12898;50.520;12.152;2022-11-27T14:39:48;16.03;;;8.43;;
24801;SDS011;12898;50.520;12.152;2022-11-27T14:42:24;17.43;;;8.77;;
24801;SDS011;12898;50.520;12.152;2022-11-27T14:45:05;16.03;;;9.03;;
24801;SDS011;12898;50.520;12.152;2022-11-27T14:47:39;17.37;;;8.93;;
24801;SDS011;12898;50.520;12.152;2022-11-27T14:50:12;15.03;;;8.77;;
24801;SDS011;12898;50.520;12.152;2022-11-27T14:52:39;16.07;;;8.80;;
24801;SDS011;12898;50.520;12.152;2022-11-27T14:55:11;17.50;;;9.53;;
24801;SDS011;12898;50.520;12.152;2022-11-27T14:57:40;19.37;;;9.57;;
24801;SDS011;12898;50.520;12.152;2022-11-27T15:02:39;18.73;;;10.13;;
24801;SDS011;12898;50.520;12.152;2022-11-27T15:05:05;18.47;;;9.73;;
24801;SDS011;12898;50.520;12.152;2022-11-27T15:07:32;17.93;;;9.43;;
24801;SDS011;12898;50.520;12.152;2022-11-27T15:10:01;19.23;;;9.50;;
24801;SDS011;12898;50.520;12.152;2022-11-27T15:12:44;15.83;;;9.40;;
24801;SDS011;12898;50.520;12.152;2022-11-27T15:15:20;17.07;;;10.20;;
24801;SDS011;12898;50.520;12.152;2022-11-27T15:17:53;15.93;;;9.37;;
24801;SDS011;12898;50.520;12.152;2022-11-27T15:23:15;15.63;;;8.87;;
24801;SDS011;12898;50.520;12.152;2022-11-27T15:25:47;19.20;;;11.27;;
24801;SDS011;12898;50.520;12.152;2022-11-27T15:28:39;19.47;;;10.53;;
24801;SDS011;12898;50.520;12.152;2022-11-27T15:34:02;18.80;;;9.80;;
24801;SDS011;12898;50.520;12.152;2022-11-27T15:36:37;19.60;;;10.30;;
24801;SDS011;12898;50.520;12.152;2022-11-27T15:39:24;19.07;;;10.23;;
24801;SDS011;12898;50.520;12.152;2022-11-27T15:42:03;20.63;;;10.23;;
24801;SDS011;12898;50.520;12.152;2022-11-27T15:44:35;17.10;;;9.67;;
24801;SDS011;12898;50.520;12.152;2022-11-27T15:47:02;18.13;;;10.60;;
24801;SDS011;12898;50.520;12.152;2022-11-27T15:49:30;20.97;;;11.60;;
24801;SDS011;12898;50.520;12.152;2022-11-27T15:51:56;17.57;;;9.63;;
24801;SDS011;12898;50.520;12.152;2022-11-27T15:54:23;20.00;;;10.97;;
24801;SDS011;12898;50.520;12.152;2022-11-27T15:56:49;22.10;;;10.43;;
24801;SDS011;12898;50.520;12.152;2022-11-27T15:59:15;22.47;;;11.27;;
24801;SDS011;12898;50.520;12.152;2022-11-27T16:01:43;20.27;;;11.13;;
24801;SDS011;12898;50.520;12.152;2022-11-27T16:04:09;20.00;;;11.23;;
24801;SDS011;12898;50.520;12.152;2022-11-27T16:06:35;18.73;;;10.57;;
24801;SDS011;12898;50.520;12.152;2022-11-27T16:09:01;20.23;;;10.97;;
24801;SDS011;12898;50.520;12.152;2022-11-27T16:11:29;21.20;;;11.77;;
24801;SDS011;12898;50.520;12.152;2022-11-27T16:13:56;19.57;;;10.67;;
24801;SDS011;12898;50.520;12.152;2022-11-27T16:16:22;20.63;;;11.20;;
24801;SDS011;12898;50.520;12.152;2022-11-27T16:18:49;20.87;;;11.40;;
24801;SDS011;12898;50.520;12.152;2022-11-27T16:21:15;19.67;;;11.03;;
24801;SDS011;12898;50.520;12.152;2022-11-27T16:23:42;18.67;;;11.10;;
24801;SDS011;12898;50.520;12.152;2022-11-27T16:26:11;20.40;;;11.17;;
24801;SDS011;12898;50.520;12.152;2022-11-27T16:28:37;20.70;;;11.70;;
24801;SDS011;12898;50.520;12.152;2022-11-27T16:31:06;19.57;;;11.20;;
24801;SDS011;12898;50.520;12.152;2022-11-27T16:33:35;20.77;;;11.90;;
24801;SDS011;12898;50.520;12.152;2022-11-27T16:36:05;20.70;;;11.43;;
24801;SDS011;12898;50.520;12.152;2022-11-27T16:38:36;21.13;;;11.90;;